KPWM/PWM METAR and TAF weather

Enter ICAO airport designator
Station Type Date Time Source
KPWM METAR 2019/02/23 00:51 UTC NOAA

KPWM 230051Z 31003KT 10SM CLR M01/M07 A3037 RMK AO2 SLP286 T10061072


Station Type Date Time Source
KPWM Decoded METAR 2019/02/23 00:51 UTC NOAA

PORTLAND INTERNATIONAL JETPORT, ME, United States (KPWM) 43-39N 70-18W 15M
Feb 22, 2019 - 07:51 PM EST / 2019.02.23 0051 UTC
Wind: from the NW (310 degrees) at 3 MPH (3 KT):0
Visibility: 10 mile(s):0
Sky conditions: clear
Temperature: 30.9 F (-0.6 C)
Dew Point: 19.0 F (-7.2 C)
Relative Humidity: 60%
Pressure (altimeter): 30.37 in. Hg (1028 hPa)
ob: KPWM 230051Z 31003KT 10SM CLR M01/M07 A3037 RMK AO2 SLP286 T10061072
cycle: 1

Station Type Date Time Source
KPWM TAF 2019/02/22 18:24 UTC NOAA

TAF KPWM 221722Z 2218/2318 31008KT P6SM SKC
FM230000 34004KT P6SM SKC
FM231500 VRB04KT P6SM SCT250


Example: see airport list